sensor_id;sensor_type;location;lat;lon;timestamp;P1;durP1;ratioP1;P2;durP2;ratioP2
74551;SDS011;63025;55.472;38.432;2023-03-31T00:01:15;12.82;;;7.05;;
74551;SDS011;63025;55.472;38.432;2023-03-31T00:03:41;12.00;;;6.75;;
74551;SDS011;63025;55.472;38.432;2023-03-31T00:06:08;12.45;;;7.60;;
74551;SDS011;63025;55.472;38.432;2023-03-31T00:08:36;12.35;;;6.65;;
74551;SDS011;63025;55.472;38.432;2023-03-31T00:11:05;12.75;;;6.85;;
74551;SDS011;63025;55.472;38.432;2023-03-31T00:13:32;12.18;;;6.53;;
74551;SDS011;63025;55.472;38.432;2023-03-31T00:16:00;11.82;;;6.80;;
74551;SDS011;63025;55.472;38.432;2023-03-31T00:18:27;14.30;;;7.50;;
74551;SDS011;63025;55.472;38.432;2023-03-31T00:20:54;10.65;;;6.03;;
74551;SDS011;63025;55.472;38.432;2023-03-31T00:23:31;11.80;;;6.53;;
74551;SDS011;63025;55.472;38.432;2023-03-31T00:25:56;9.85;;;6.00;;
74551;SDS011;63025;55.472;38.432;2023-03-31T00:28:22;10.98;;;6.20;;
74551;SDS011;63025;55.472;38.432;2023-03-31T00:30:48;9.95;;;6.03;;
74551;SDS011;63025;55.472;38.432;2023-03-31T00:33:14;9.52;;;5.80;;
74551;SDS011;63025;55.472;38.432;2023-03-31T00:35:41;10.77;;;6.07;;
74551;SDS011;63025;55.472;38.432;2023-03-31T00:38:07;10.65;;;5.85;;
74551;SDS011;63025;55.472;38.432;2023-03-31T00:40:34;10.00;;;5.75;;
74551;SDS011;63025;55.472;38.432;2023-03-31T00:43:00;10.77;;;6.20;;
74551;SDS011;63025;55.472;38.432;2023-03-31T00:45:28;11.70;;;5.88;;
74551;SDS011;63025;55.472;38.432;2023-03-31T00:48:01;10.35;;;6.13;;
74551;SDS011;63025;55.472;38.432;2023-03-31T00:50:36;10.23;;;5.32;;
74551;SDS011;63025;55.472;38.432;2023-03-31T00:53:09;9.68;;;5.38;;
74551;SDS011;63025;55.472;38.432;2023-03-31T00:55:44;9.93;;;5.50;;
74551;SDS011;63025;55.472;38.432;2023-03-31T00:58:13;9.73;;;5.90;;
74551;SDS011;63025;55.472;38.432;2023-03-31T01:00:47;10.05;;;5.55;;
74551;SDS011;63025;55.472;38.432;2023-03-31T01:03:17;9.13;;;5.65;;
74551;SDS011;63025;55.472;38.432;2023-03-31T01:06:20;10.77;;;5.50;;
74551;SDS011;63025;55.472;38.432;2023-03-31T01:08:43;9.35;;;5.38;;
74551;SDS011;63025;55.472;38.432;2023-03-31T01:11:11;9.20;;;5.68;;
74551;SDS011;63025;55.472;38.432;2023-03-31T01:13:40;10.20;;;5.88;;
74551;SDS011;63025;55.472;38.432;2023-03-31T01:16:08;10.43;;;5.85;;
74551;SDS011;63025;55.472;38.432;2023-03-31T01:18:34;11.85;;;6.20;;
74551;SDS011;63025;55.472;38.432;2023-03-31T01:27:35;10.07;;;5.93;;
74551;SDS011;63025;55.472;38.432;2023-03-31T01:46:45;10.13;;;6.05;;
74551;SDS011;63025;55.472;38.432;2023-03-31T01:49:18;10.23;;;6.30;;
74551;SDS011;63025;55.472;38.432;2023-03-31T01:54:46;9.63;;;5.53;;
74551;SDS011;63025;55.472;38.432;2023-03-31T01:57:18;8.90;;;5.57;;
74551;SDS011;63025;55.472;38.432;2023-03-31T02:00:14;9.40;;;5.28;;
74551;SDS011;63025;55.472;38.432;2023-03-31T02:02:44;9.05;;;4.85;;
74551;SDS011;63025;55.472;38.432;2023-03-31T02:05:21;10.68;;;5.38;;
74551;SDS011;63025;55.472;38.432;2023-03-31T02:07:53;10.50;;;5.30;;
74551;SDS011;63025;55.472;38.432;2023-03-31T02:10:24;9.15;;;5.15;;
74551;SDS011;63025;55.472;38.432;2023-03-31T02:12:57;8.68;;;5.22;;
74551;SDS011;63025;55.472;38.432;2023-03-31T02:15:26;8.85;;;5.43;;
74551;SDS011;63025;55.472;38.432;2023-03-31T02:17:56;8.32;;;5.05;;
74551;SDS011;63025;55.472;38.432;2023-03-31T02:20:24;7.95;;;4.82;;
74551;SDS011;63025;55.472;38.432;2023-03-31T02:22:53;9.77;;;5.30;;
74551;SDS011;63025;55.472;38.432;2023-03-31T02:25:22;10.63;;;5.13;;
74551;SDS011;63025;55.472;38.432;2023-03-31T02:28:00;9.07;;;5.13;;
74551;SDS011;63025;55.472;38.432;2023-03-31T02:30:39;11.88;;;6.05;;
74551;SDS011;63025;55.472;38.432;2023-03-31T02:33:13;17.98;;;8.02;;
74551;SDS011;63025;55.472;38.432;2023-03-31T02:35:41;9.38;;;5.05;;
74551;SDS011;63025;55.472;38.432;2023-03-31T02:38:07;9.48;;;4.95;;
74551;SDS011;63025;55.472;38.432;2023-03-31T02:40:34;9.25;;;4.80;;
74551;SDS011;63025;55.472;38.432;2023-03-31T02:43:00;8.65;;;4.30;;
74551;SDS011;63025;55.472;38.432;2023-03-31T02:48:14;8.00;;;4.35;;
74551;SDS011;63025;55.472;38.432;2023-03-31T03:05:34;7.57;;;3.90;;
74551;SDS011;63025;55.472;38.432;2023-03-31T03:09:00;7.35;;;4.57;;
74551;SDS011;63025;55.472;38.432;2023-03-31T03:11:50;7.93;;;4.43;;
74551;SDS011;63025;55.472;38.432;2023-03-31T03:16:56;8.55;;;4.15;;
74551;SDS011;63025;55.472;38.432;2023-03-31T03:19:27;8.18;;;3.75;;
74551;SDS011;63025;55.472;38.432;2023-03-31T03:21:53;9.27;;;4.40;;
74551;SDS011;63025;55.472;38.432;2023-03-31T03:24:18;8.07;;;4.10;;
74551;SDS011;63025;55.472;38.432;2023-03-31T03:26:47;8.18;;;4.28;;
74551;SDS011;63025;55.472;38.432;2023-03-31T03:29:12;7.70;;;4.43;;
74551;SDS011;63025;55.472;38.432;2023-03-31T03:31:41;8.52;;;4.32;;
74551;SDS011;63025;55.472;38.432;2023-03-31T03:34:07;9.95;;;4.53;;
74551;SDS011;63025;55.472;38.432;2023-03-31T03:36:34;10.82;;;4.88;;
74551;SDS011;63025;55.472;38.432;2023-03-31T03:39:02;8.63;;;4.50;;
74551;SDS011;63025;55.472;38.432;2023-03-31T03:41:29;8.85;;;4.90;;
74551;SDS011;63025;55.472;38.432;2023-03-31T03:43:57;7.57;;;3.92;;
74551;SDS011;63025;55.472;38.432;2023-03-31T03:46:24;10.18;;;4.68;;
74551;SDS011;63025;55.472;38.432;2023-03-31T03:48:51;9.00;;;4.75;;
74551;SDS011;63025;55.472;38.432;2023-03-31T03:51:16;8.18;;;4.55;;
74551;SDS011;63025;55.472;38.432;2023-03-31T03:53:42;10.27;;;5.00;;
74551;SDS011;63025;55.472;38.432;2023-03-31T03:56:08;10.15;;;4.85;;
74551;SDS011;63025;55.472;38.432;2023-03-31T03:58:34;8.90;;;4.72;;
74551;SDS011;63025;55.472;38.432;2023-03-31T04:01:00;8.10;;;4.30;;
74551;SDS011;63025;55.472;38.432;2023-03-31T04:03:26;7.95;;;4.63;;
74551;SDS011;63025;55.472;38.432;2023-03-31T04:05:52;7.95;;;4.03;;
74551;SDS011;63025;55.472;38.432;2023-03-31T04:08:18;7.75;;;4.00;;
74551;SDS011;63025;55.472;38.432;2023-03-31T04:10:44;7.93;;;3.92;;
74551;SDS011;63025;55.472;38.432;2023-03-31T04:13:19;9.70;;;4.40;;
74551;SDS011;63025;55.472;38.432;2023-03-31T04:15:45;8.13;;;4.65;;
74551;SDS011;63025;55.472;38.432;2023-03-31T04:18:12;8.00;;;4.70;;
74551;SDS011;63025;55.472;38.432;2023-03-31T04:20:51;6.88;;;3.80;;
74551;SDS011;63025;55.472;38.432;2023-03-31T04:23:28;8.27;;;4.40;;
74551;SDS011;63025;55.472;38.432;2023-03-31T04:25:58;7.40;;;3.95;;
74551;SDS011;63025;55.472;38.432;2023-03-31T04:28:25;8.43;;;4.07;;
74551;SDS011;63025;55.472;38.432;2023-03-31T04:30:53;7.00;;;4.03;;
74551;SDS011;63025;55.472;38.432;2023-03-31T04:33:19;7.90;;;4.45;;
74551;SDS011;63025;55.472;38.432;2023-03-31T04:35:46;5.97;;;3.58;;
74551;SDS011;63025;55.472;38.432;2023-03-31T04:38:18;7.05;;;3.88;;
74551;SDS011;63025;55.472;38.432;2023-03-31T04:40:46;7.72;;;3.75;;
74551;SDS011;63025;55.472;38.432;2023-03-31T04:43:14;6.30;;;3.85;;
74551;SDS011;63025;55.472;38.432;2023-03-31T04:45:41;7.13;;;3.97;;
74551;SDS011;63025;55.472;38.432;2023-03-31T04:48:07;6.45;;;3.83;;
74551;SDS011;63025;55.472;38.432;2023-03-31T04:50:33;6.22;;;3.67;;
74551;SDS011;63025;55.472;38.432;2023-03-31T04:52:59;6.25;;;3.50;;
74551;SDS011;63025;55.472;38.432;2023-03-31T04:55:25;6.03;;;3.42;;
74551;SDS011;63025;55.472;38.432;2023-03-31T04:57:51;6.63;;;3.42;;
74551;SDS011;63025;55.472;38.432;2023-03-31T05:00:17;6.82;;;3.67;;
74551;SDS011;63025;55.472;38.432;2023-03-31T05:02:44;5.18;;;2.80;;
74551;SDS011;63025;55.472;38.432;2023-03-31T05:05:10;5.45;;;2.92;;
74551;SDS011;63025;55.472;38.432;2023-03-31T05:07:36;6.18;;;3.58;;
74551;SDS011;63025;55.472;38.432;2023-03-31T05:10:03;6.22;;;3.47;;
74551;SDS011;63025;55.472;38.432;2023-03-31T05:12:32;5.65;;;2.95;;
74551;SDS011;63025;55.472;38.432;2023-03-31T05:15:02;5.97;;;3.42;;
74551;SDS011;63025;55.472;38.432;2023-03-31T05:17:30;6.32;;;3.60;;
74551;SDS011;63025;55.472;38.432;2023-03-31T05:20:12;6.00;;;3.55;;
74551;SDS011;63025;55.472;38.432;2023-03-31T05:22:39;5.45;;;3.40;;
74551;SDS011;63025;55.472;38.432;2023-03-31T05:25:06;6.60;;;3.30;;
74551;SDS011;63025;55.472;38.432;2023-03-31T05:27:34;6.72;;;3.65;;
74551;SDS011;63025;55.472;38.432;2023-03-31T05:30:00;5.72;;;3.40;;
74551;SDS011;63025;55.472;38.432;2023-03-31T05:32:28;5.32;;;3.17;;
74551;SDS011;63025;55.472;38.432;2023-03-31T05:34:54;5.07;;;3.08;;
74551;SDS011;63025;55.472;38.432;2023-03-31T05:37:23;4.93;;;3.10;;
74551;SDS011;63025;55.472;38.432;2023-03-31T05:39:50;5.93;;;3.38;;
74551;SDS011;63025;55.472;38.432;2023-03-31T05:42:16;5.93;;;3.35;;
74551;SDS011;63025;55.472;38.432;2023-03-31T05:44:42;6.10;;;2.80;;
74551;SDS011;63025;55.472;38.432;2023-03-31T05:47:08;5.28;;;3.10;;
74551;SDS011;63025;55.472;38.432;2023-03-31T05:49:34;4.80;;;3.03;;
74551;SDS011;63025;55.472;38.432;2023-03-31T05:52:00;5.80;;;3.15;;
74551;SDS011;63025;55.472;38.432;2023-03-31T05:54:26;6.13;;;3.40;;
74551;SDS011;63025;55.472;38.432;2023-03-31T05:56:52;6.05;;;3.40;;
74551;SDS011;63025;55.472;38.432;2023-03-31T05:59:18;4.97;;;3.05;;
74551;SDS011;63025;55.472;38.432;2023-03-31T06:01:43;6.15;;;3.50;;
74551;SDS011;63025;55.472;38.432;2023-03-31T06:04:09;5.22;;;3.40;;
74551;SDS011;63025;55.472;38.432;2023-03-31T06:06:35;5.38;;;3.10;;
74551;SDS011;63025;55.472;38.432;2023-03-31T06:09:02;5.03;;;2.95;;
74551;SDS011;63025;55.472;38.432;2023-03-31T06:11:28;5.43;;;3.15;;
74551;SDS011;63025;55.472;38.432;2023-03-31T06:13:54;5.25;;;2.92;;
74551;SDS011;63025;55.472;38.432;2023-03-31T06:16:20;5.85;;;3.53;;
74551;SDS011;63025;55.472;38.432;2023-03-31T06:18:46;5.00;;;3.00;;
74551;SDS011;63025;55.472;38.432;2023-03-31T06:21:15;5.80;;;3.03;;
74551;SDS011;63025;55.472;38.432;2023-03-31T06:23:42;5.68;;;3.42;;
74551;SDS011;63025;55.472;38.432;2023-03-31T06:26:16;6.00;;;3.45;;
74551;SDS011;63025;55.472;38.432;2023-03-31T06:28:43;5.85;;;3.80;;
74551;SDS011;63025;55.472;38.432;2023-03-31T06:31:11;5.70;;;3.35;;
74551;SDS011;63025;55.472;38.432;2023-03-31T06:33:39;5.82;;;2.97;;
74551;SDS011;63025;55.472;38.432;2023-03-31T06:36:06;6.13;;;3.67;;
74551;SDS011;63025;55.472;38.432;2023-03-31T06:38:33;6.85;;;4.05;;
74551;SDS011;63025;55.472;38.432;2023-03-31T06:41:00;9.27;;;4.07;;
74551;SDS011;63025;55.472;38.432;2023-03-31T06:43:26;7.68;;;4.20;;
74551;SDS011;63025;55.472;38.432;2023-03-31T06:45:52;5.78;;;3.40;;
74551;SDS011;63025;55.472;38.432;2023-03-31T06:48:18;6.57;;;3.67;;
74551;SDS011;63025;55.472;38.432;2023-03-31T06:50:44;6.05;;;3.78;;
74551;SDS011;63025;55.472;38.432;2023-03-31T06:53:10;5.57;;;3.60;;
74551;SDS011;63025;55.472;38.432;2023-03-31T06:55:36;6.13;;;3.42;;
74551;SDS011;63025;55.472;38.432;2023-03-31T06:58:03;6.03;;;3.78;;
74551;SDS011;63025;55.472;38.432;2023-03-31T07:00:29;4.72;;;2.97;;
74551;SDS011;63025;55.472;38.432;2023-03-31T07:02:56;6.88;;;4.00;;
74551;SDS011;63025;55.472;38.432;2023-03-31T07:05:22;5.45;;;3.38;;
74551;SDS011;63025;55.472;38.432;2023-03-31T07:07:52;6.63;;;3.63;;
74551;SDS011;63025;55.472;38.432;2023-03-31T07:10:18;5.93;;;3.65;;
74551;SDS011;63025;55.472;38.432;2023-03-31T07:12:44;6.32;;;3.50;;
74551;SDS011;63025;55.472;38.432;2023-03-31T07:15:10;6.43;;;3.55;;
74551;SDS011;63025;55.472;38.432;2023-03-31T07:17:36;5.88;;;3.60;;
74551;SDS011;63025;55.472;38.432;2023-03-31T07:20:02;6.45;;;3.70;;
74551;SDS011;63025;55.472;38.432;2023-03-31T07:22:33;6.25;;;3.55;;
74551;SDS011;63025;55.472;38.432;2023-03-31T07:24:59;5.45;;;3.50;;
74551;SDS011;63025;55.472;38.432;2023-03-31T07:27:25;6.95;;;4.20;;
74551;SDS011;63025;55.472;38.432;2023-03-31T07:29:51;5.90;;;3.67;;
74551;SDS011;63025;55.472;38.432;2023-03-31T07:32:17;7.28;;;4.00;;
74551;SDS011;63025;55.472;38.432;2023-03-31T07:34:43;5.63;;;3.53;;
74551;SDS011;63025;55.472;38.432;2023-03-31T07:37:08;7.78;;;4.30;;
74551;SDS011;63025;55.472;38.432;2023-03-31T07:39:34;6.28;;;3.78;;
74551;SDS011;63025;55.472;38.432;2023-03-31T07:42:01;6.10;;;3.80;;
74551;SDS011;63025;55.472;38.432;2023-03-31T07:44:27;6.82;;;3.90;;
74551;SDS011;63025;55.472;38.432;2023-03-31T07:46:52;6.57;;;3.70;;
74551;SDS011;63025;55.472;38.432;2023-03-31T07:49:18;6.55;;;4.00;;
74551;SDS011;63025;55.472;38.432;2023-03-31T07:51:44;7.00;;;4.05;;
74551;SDS011;63025;55.472;38.432;2023-03-31T07:54:10;8.15;;;4.20;;
74551;SDS011;63025;55.472;38.432;2023-03-31T07:56:36;6.10;;;3.72;;
74551;SDS011;63025;55.472;38.432;2023-03-31T07:59:02;6.72;;;4.03;;
74551;SDS011;63025;55.472;38.432;2023-03-31T08:01:27;6.28;;;3.72;;
74551;SDS011;63025;55.472;38.432;2023-03-31T08:03:54;7.10;;;4.30;;
74551;SDS011;63025;55.472;38.432;2023-03-31T08:06:21;6.28;;;3.97;;
74551;SDS011;63025;55.472;38.432;2023-03-31T08:08:48;6.80;;;4.05;;
74551;SDS011;63025;55.472;38.432;2023-03-31T08:11:15;6.60;;;3.97;;
74551;SDS011;63025;55.472;38.432;2023-03-31T08:13:41;7.57;;;4.30;;
74551;SDS011;63025;55.472;38.432;2023-03-31T08:16:07;7.47;;;4.43;;
74551;SDS011;63025;55.472;38.432;2023-03-31T08:18:33;6.60;;;4.25;;
74551;SDS011;63025;55.472;38.432;2023-03-31T08:20:59;6.72;;;4.13;;
74551;SDS011;63025;55.472;38.432;2023-03-31T08:23:24;6.70;;;4.07;;
74551;SDS011;63025;55.472;38.432;2023-03-31T08:25:50;7.13;;;4.60;;
74551;SDS011;63025;55.472;38.432;2023-03-31T08:28:16;7.70;;;4.57;;
74551;SDS011;63025;55.472;38.432;2023-03-31T08:30:42;7.72;;;4.70;;
74551;SDS011;63025;55.472;38.432;2023-03-31T08:33:08;8.15;;;4.75;;
74551;SDS011;63025;55.472;38.432;2023-03-31T08:35:37;7.82;;;4.22;;
74551;SDS011;63025;55.472;38.432;2023-03-31T08:38:03;8.75;;;4.40;;
74551;SDS011;63025;55.472;38.432;2023-03-31T08:40:30;7.65;;;4.10;;
74551;SDS011;63025;55.472;38.432;2023-03-31T08:43:05;9.20;;;4.63;;
74551;SDS011;63025;55.472;38.432;2023-03-31T08:45:36;8.00;;;4.90;;
74551;SDS011;63025;55.472;38.432;2023-03-31T08:50:43;8.68;;;4.63;;
74551;SDS011;63025;55.472;38.432;2023-03-31T08:53:28;8.32;;;5.10;;
74551;SDS011;63025;55.472;38.432;2023-03-31T08:55:57;8.15;;;4.90;;
74551;SDS011;63025;55.472;38.432;2023-03-31T08:58:34;9.00;;;5.05;;
74551;SDS011;63025;55.472;38.432;2023-03-31T09:12:18;10.63;;;5.30;;
74551;SDS011;63025;55.472;38.432;2023-03-31T09:14:55;10.77;;;5.93;;
74551;SDS011;63025;55.472;38.432;2023-03-31T09:17:26;9.75;;;5.63;;
74551;SDS011;63025;55.472;38.432;2023-03-31T09:19:59;12.05;;;6.40;;
74551;SDS011;63025;55.472;38.432;2023-03-31T09:22:34;12.80;;;6.47;;
74551;SDS011;63025;55.472;38.432;2023-03-31T09:25:17;12.93;;;6.18;;
74551;SDS011;63025;55.472;38.432;2023-03-31T09:27:47;10.95;;;6.20;;
74551;SDS011;63025;55.472;38.432;2023-03-31T09:30:20;11.25;;;6.50;;
74551;SDS011;63025;55.472;38.432;2023-03-31T09:32:52;11.90;;;5.90;;
74551;SDS011;63025;55.472;38.432;2023-03-31T09:35:29;9.43;;;5.32;;
74551;SDS011;63025;55.472;38.432;2023-03-31T09:37:57;10.07;;;5.57;;
74551;SDS011;63025;55.472;38.432;2023-03-31T09:40:25;10.95;;;5.95;;
74551;SDS011;63025;55.472;38.432;2023-03-31T09:47:54;9.77;;;5.68;;
74551;SDS011;63025;55.472;38.432;2023-03-31T09:50:23;10.57;;;5.50;;
74551;SDS011;63025;55.472;38.432;2023-03-31T09:55:19;10.43;;;5.13;;
74551;SDS011;63025;55.472;38.432;2023-03-31T09:57:47;11.40;;;5.30;;
74551;SDS011;63025;55.472;38.432;2023-03-31T10:00:17;9.07;;;5.25;;
74551;SDS011;63025;55.472;38.432;2023-03-31T10:02:49;10.00;;;5.47;;
74551;SDS011;63025;55.472;38.432;2023-03-31T10:05:18;10.48;;;5.30;;
74551;SDS011;63025;55.472;38.432;2023-03-31T10:10:44;9.93;;;5.53;;
74551;SDS011;63025;55.472;38.432;2023-03-31T10:16:02;10.55;;;5.43;;
74551;SDS011;63025;55.472;38.432;2023-03-31T10:18:36;10.77;;;5.80;;
74551;SDS011;63025;55.472;38.432;2023-03-31T10:21:05;10.10;;;5.47;;
74551;SDS011;63025;55.472;38.432;2023-03-31T10:23:40;9.68;;;5.22;;
74551;SDS011;63025;55.472;38.432;2023-03-31T10:26:13;10.80;;;5.63;;
74551;SDS011;63025;55.472;38.432;2023-03-31T10:28:44;11.68;;;6.20;;
74551;SDS011;63025;55.472;38.432;2023-03-31T10:31:13;9.98;;;5.88;;
74551;SDS011;63025;55.472;38.432;2023-03-31T10:33:43;10.90;;;6.05;;
74551;SDS011;63025;55.472;38.432;2023-03-31T10:36:27;10.25;;;5.78;;
74551;SDS011;63025;55.472;38.432;2023-03-31T10:38:54;14.10;;;6.45;;
74551;SDS011;63025;55.472;38.432;2023-03-31T10:41:21;9.10;;;5.50;;
74551;SDS011;63025;55.472;38.432;2023-03-31T10:43:50;12.80;;;6.25;;
74551;SDS011;63025;55.472;38.432;2023-03-31T10:46:18;13.25;;;6.15;;
74551;SDS011;63025;55.472;38.432;2023-03-31T10:48:43;13.30;;;6.03;;
74551;SDS011;63025;55.472;38.432;2023-03-31T10:53:50;11.50;;;6.20;;
74551;SDS011;63025;55.472;38.432;2023-03-31T11:02:18;11.35;;;5.80;;
74551;SDS011;63025;55.472;38.432;2023-03-31T11:04:52;14.77;;;6.82;;
74551;SDS011;63025;55.472;38.432;2023-03-31T11:07:38;13.40;;;6.93;;
74551;SDS011;63025;55.472;38.432;2023-03-31T11:26:56;14.07;;;7.05;;
74551;SDS011;63025;55.472;38.432;2023-03-31T11:29:37;13.85;;;6.90;;
74551;SDS011;63025;55.472;38.432;2023-03-31T11:41:02;13.88;;;7.28;;
74551;SDS011;63025;55.472;38.432;2023-03-31T11:46:22;14.18;;;7.07;;
74551;SDS011;63025;55.472;38.432;2023-03-31T11:54:02;15.98;;;7.75;;
74551;SDS011;63025;55.472;38.432;2023-03-31T11:56:37;15.05;;;7.13;;
74551;SDS011;63025;55.472;38.432;2023-03-31T11:59:05;16.98;;;7.30;;
74551;SDS011;63025;55.472;38.432;2023-03-31T12:06:47;18.08;;;8.10;;
74551;SDS011;63025;55.472;38.432;2023-03-31T12:09:29;15.32;;;7.22;;
74551;SDS011;63025;55.472;38.432;2023-03-31T12:12:12;14.43;;;8.20;;
74551;SDS011;63025;55.472;38.432;2023-03-31T12:14:46;13.57;;;7.07;;
74551;SDS011;63025;55.472;38.432;2023-03-31T12:17:18;14.85;;;7.60;;
74551;SDS011;63025;55.472;38.432;2023-03-31T12:20:33;14.30;;;7.43;;
74551;SDS011;63025;55.472;38.432;2023-03-31T12:23:32;17.02;;;7.68;;
74551;SDS011;63025;55.472;38.432;2023-03-31T12:26:06;15.07;;;7.72;;
74551;SDS011;63025;55.472;38.432;2023-03-31T12:28:54;17.40;;;7.55;;
74551;SDS011;63025;55.472;38.432;2023-03-31T12:31:23;16.70;;;7.40;;
74551;SDS011;63025;55.472;38.432;2023-03-31T12:33:59;14.57;;;7.50;;
74551;SDS011;63025;55.472;38.432;2023-03-31T12:36:36;15.45;;;7.82;;
74551;SDS011;63025;55.472;38.432;2023-03-31T12:45:05;16.05;;;7.97;;
74551;SDS011;63025;55.472;38.432;2023-03-31T12:47:44;18.58;;;7.30;;
74551;SDS011;63025;55.472;38.432;2023-03-31T12:55:55;14.18;;;6.88;;
74551;SDS011;63025;55.472;38.432;2023-03-31T13:06:55;14.35;;;6.43;;
74551;SDS011;63025;55.472;38.432;2023-03-31T13:08:56;14.35;;;7.43;;
74551;SDS011;63025;55.472;38.432;2023-03-31T13:16:39;14.07;;;6.82;;
74551;SDS011;63025;55.472;38.432;2023-03-31T13:19:05;12.43;;;6.60;;
74551;SDS011;63025;55.472;38.432;2023-03-31T13:21:40;12.55;;;6.35;;
74551;SDS011;63025;55.472;38.432;2023-03-31T13:24:27;12.00;;;6.18;;
74551;SDS011;63025;55.472;38.432;2023-03-31T13:26:54;10.40;;;5.90;;
74551;SDS011;63025;55.472;38.432;2023-03-31T13:39:49;13.75;;;6.28;;
74551;SDS011;63025;55.472;38.432;2023-03-31T13:42:43;11.88;;;5.93;;
74551;SDS011;63025;55.472;38.432;2023-03-31T13:45:21;9.02;;;5.13;;
74551;SDS011;63025;55.472;38.432;2023-03-31T13:53:28;9.00;;;4.93;;
74551;SDS011;63025;55.472;38.432;2023-03-31T14:03:57;9.07;;;4.82;;
74551;SDS011;63025;55.472;38.432;2023-03-31T14:06:43;7.15;;;4.40;;
74551;SDS011;63025;55.472;38.432;2023-03-31T14:12:00;9.35;;;5.28;;
74551;SDS011;63025;55.472;38.432;2023-03-31T14:14:26;8.25;;;5.00;;
74551;SDS011;63025;55.472;38.432;2023-03-31T14:16:58;8.23;;;4.80;;
74551;SDS011;63025;55.472;38.432;2023-03-31T14:22:43;9.27;;;4.80;;
74551;SDS011;63025;55.472;38.432;2023-03-31T14:32:01;8.20;;;4.40;;
74551;SDS011;63025;55.472;38.432;2023-03-31T14:36:52;9.32;;;5.47;;
74551;SDS011;63025;55.472;38.432;2023-03-31T14:39:23;8.65;;;6.07;;
74551;SDS011;63025;55.472;38.432;2023-03-31T14:41:53;9.40;;;6.15;;
74551;SDS011;63025;55.472;38.432;2023-03-31T14:44:22;14.40;;;9.40;;
74551;SDS011;63025;55.472;38.432;2023-03-31T14:46:50;13.25;;;8.30;;
74551;SDS011;63025;55.472;38.432;2023-03-31T14:51:46;9.75;;;6.07;;
74551;SDS011;63025;55.472;38.432;2023-03-31T14:54:16;8.82;;;5.90;;
74551;SDS011;63025;55.472;38.432;2023-03-31T14:56:43;9.10;;;5.68;;
74551;SDS011;63025;55.472;38.432;2023-03-31T14:59:17;8.25;;;5.00;;
74551;SDS011;63025;55.472;38.432;2023-03-31T15:01:46;11.82;;;6.45;;
74551;SDS011;63025;55.472;38.432;2023-03-31T15:04:14;12.70;;;6.70;;
74551;SDS011;63025;55.472;38.432;2023-03-31T15:06:44;9.40;;;5.20;;
74551;SDS011;63025;55.472;38.432;2023-03-31T15:09:17;9.93;;;5.90;;
74551;SDS011;63025;55.472;38.432;2023-03-31T15:11:58;10.57;;;5.88;;
74551;SDS011;63025;55.472;38.432;2023-03-31T15:14:29;9.65;;;5.35;;
74551;SDS011;63025;55.472;38.432;2023-03-31T15:16:58;10.13;;;5.82;;
74551;SDS011;63025;55.472;38.432;2023-03-31T15:19:33;12.38;;;6.30;;
74551;SDS011;63025;55.472;38.432;2023-03-31T15:22:15;12.38;;;6.10;;
74551;SDS011;63025;55.472;38.432;2023-03-31T15:24:43;13.45;;;7.20;;
74551;SDS011;63025;55.472;38.432;2023-03-31T15:29:58;15.27;;;7.22;;
74551;SDS011;63025;55.472;38.432;2023-03-31T15:32:29;19.63;;;9.55;;
74551;SDS011;63025;55.472;38.432;2023-03-31T15:34:59;17.80;;;9.40;;
74551;SDS011;63025;55.472;38.432;2023-03-31T15:37:26;20.85;;;10.35;;
74551;SDS011;63025;55.472;38.432;2023-03-31T15:40:00;18.23;;;10.48;;
74551;SDS011;63025;55.472;38.432;2023-03-31T15:42:32;19.23;;;10.35;;
74551;SDS011;63025;55.472;38.432;2023-03-31T15:48:08;17.80;;;10.82;;
74551;SDS011;63025;55.472;38.432;2023-03-31T15:50:42;23.65;;;14.07;;
74551;SDS011;63025;55.472;38.432;2023-03-31T15:53:20;22.85;;;12.65;;
74551;SDS011;63025;55.472;38.432;2023-03-31T15:55:48;23.85;;;11.80;;
74551;SDS011;63025;55.472;38.432;2023-03-31T15:58:19;29.80;;;13.88;;
74551;SDS011;63025;55.472;38.432;2023-03-31T16:00:51;30.27;;;15.82;;
74551;SDS011;63025;55.472;38.432;2023-03-31T16:03:28;32.22;;;15.35;;
74551;SDS011;63025;55.472;38.432;2023-03-31T16:06:14;34.67;;;17.42;;
74551;SDS011;63025;55.472;38.432;2023-03-31T16:09:04;38.63;;;18.23;;
74551;SDS011;63025;55.472;38.432;2023-03-31T16:14:06;43.58;;;20.80;;
74551;SDS011;63025;55.472;38.432;2023-03-31T16:16:37;36.38;;;18.90;;
74551;SDS011;63025;55.472;38.432;2023-03-31T16:19:06;45.28;;;23.60;;
74551;SDS011;63025;55.472;38.432;2023-03-31T16:21:36;50.40;;;22.98;;
74551;SDS011;63025;55.472;38.432;2023-03-31T16:24:06;40.85;;;20.73;;
74551;SDS011;63025;55.472;38.432;2023-03-31T16:26:32;46.90;;;22.38;;
74551;SDS011;63025;55.472;38.432;2023-03-31T16:28:58;48.90;;;22.92;;
74551;SDS011;63025;55.472;38.432;2023-03-31T16:31:30;50.13;;;23.73;;
74551;SDS011;63025;55.472;38.432;2023-03-31T16:33:59;46.78;;;22.77;;
74551;SDS011;63025;55.472;38.432;2023-03-31T16:36:25;49.08;;;24.55;;
74551;SDS011;63025;55.472;38.432;2023-03-31T16:38:51;55.95;;;25.42;;
74551;SDS011;63025;55.472;38.432;2023-03-31T16:41:18;50.65;;;24.05;;
74551;SDS011;63025;55.472;38.432;2023-03-31T16:43:46;52.45;;;24.23;;
74551;SDS011;63025;55.472;38.432;2023-03-31T16:46:11;42.38;;;21.60;;
74551;SDS011;63025;55.472;38.432;2023-03-31T16:48:37;48.53;;;24.23;;
74551;SDS011;63025;55.472;38.432;2023-03-31T16:51:03;55.20;;;25.75;;
74551;SDS011;63025;55.472;38.432;2023-03-31T16:53:30;55.40;;;26.25;;
74551;SDS011;63025;55.472;38.432;2023-03-31T16:55:58;47.85;;;23.65;;
74551;SDS011;63025;55.472;38.432;2023-03-31T16:58:25;57.03;;;27.45;;
74551;SDS011;63025;55.472;38.432;2023-03-31T17:00:54;39.65;;;21.40;;
74551;SDS011;63025;55.472;38.432;2023-03-31T17:03:22;39.88;;;21.23;;
74551;SDS011;63025;55.472;38.432;2023-03-31T17:05:53;38.55;;;20.63;;
74551;SDS011;63025;55.472;38.432;2023-03-31T17:08:22;38.90;;;19.45;;
74551;SDS011;63025;55.472;38.432;2023-03-31T17:11:01;34.42;;;18.35;;
74551;SDS011;63025;55.472;38.432;2023-03-31T17:13:29;36.55;;;19.20;;
74551;SDS011;63025;55.472;38.432;2023-03-31T17:15:56;40.65;;;20.58;;
74551;SDS011;63025;55.472;38.432;2023-03-31T17:18:23;39.38;;;20.30;;
74551;SDS011;63025;55.472;38.432;2023-03-31T17:20:50;35.50;;;17.20;;
74551;SDS011;63025;55.472;38.432;2023-03-31T17:23:18;31.40;;;15.88;;
74551;SDS011;63025;55.472;38.432;2023-03-31T17:25:46;34.40;;;17.05;;
74551;SDS011;63025;55.472;38.432;2023-03-31T17:28:13;35.95;;;17.50;;
74551;SDS011;63025;55.472;38.432;2023-03-31T17:30:38;33.33;;;17.88;;
74551;SDS011;63025;55.472;38.432;2023-03-31T17:33:06;37.08;;;17.38;;
74551;SDS011;63025;55.472;38.432;2023-03-31T17:35:32;36.47;;;17.50;;
74551;SDS011;63025;55.472;38.432;2023-03-31T17:38:04;30.98;;;15.63;;
74551;SDS011;63025;55.472;38.432;2023-03-31T17:40:30;33.22;;;15.48;;
74551;SDS011;63025;55.472;38.432;2023-03-31T17:42:58;32.08;;;15.93;;
74551;SDS011;63025;55.472;38.432;2023-03-31T17:45:24;30.20;;;14.45;;
74551;SDS011;63025;55.472;38.432;2023-03-31T17:47:53;29.60;;;14.68;;
74551;SDS011;63025;55.472;38.432;2023-03-31T17:50:20;25.15;;;13.40;;
74551;SDS011;63025;55.472;38.432;2023-03-31T17:52:46;33.08;;;17.45;;
74551;SDS011;63025;55.472;38.432;2023-03-31T17:55:12;34.35;;;15.70;;
74551;SDS011;63025;55.472;38.432;2023-03-31T17:57:39;33.63;;;16.40;;